createdAt,value
2023-05-10T00:01:43.123Z,100024.31
2023-05-10T00:04:15.730Z,100018.97
2023-05-10T00:06:56.384Z,100017.91
2023-05-10T00:09:34.830Z,100022.94
2023-05-10T00:12:15.899Z,100017.47
2023-05-10T00:14:53.340Z,100013.88
2023-05-10T00:17:36.819Z,100013.69
2023-05-10T00:20:17.416Z,100006.03
2023-05-10T00:23:06.850Z,100004.78
2023-05-10T00:25:49.720Z,100004.25
2023-05-10T00:28:38.364Z,100009.03
2023-05-10T00:31:19.030Z,99999.97
2023-05-10T00:34:00.200Z,100001.22
2023-05-10T00:36:37.946Z,99998.34
2023-05-10T00:39:28.467Z,100000.88
2023-05-10T00:42:12.223Z,99995.44
2023-05-10T00:44:58.624Z,99995.44
2023-05-10T00:47:32.059Z,99997.09
2023-05-10T00:50:25.012Z,99988.91
2023-05-10T00:53:05.057Z,99985.75
2023-05-10T00:55:43.298Z,99998.91
2023-05-10T00:58:18.697Z,99995.81
2023-05-10T01:01:05.200Z,99988.78
2023-05-10T01:03:49.263Z,99997.13
2023-05-10T01:06:35.870Z,99991.69
2023-05-10T01:09:19.077Z,99991.50
2023-05-10T01:11:50.224Z,99986.81
2023-05-10T01:14:37.328Z,99992.06
2023-05-10T01:17:22.197Z,99994.97
2023-05-10T01:20:03.085Z,100002.06
2023-05-10T01:23:00.841Z,99990.06
2023-05-10T01:25:45.226Z,99987.91
2023-05-10T01:28:49.864Z,99979.50
2023-05-10T01:31:36.954Z,99986.69
2023-05-10T01:34:14.069Z,99983.94
2023-05-10T01:36:56.577Z,99984.19
2023-05-10T01:39:49.968Z,99983.34
2023-05-10T01:42:39.918Z,99987.91
2023-05-10T01:45:19.347Z,99982.28
2023-05-10T01:48:33.007Z,99983.69
2023-05-10T01:51:11.039Z,99977.88
2023-05-10T01:54:00.040Z,99976.53
2023-05-10T01:56:46.051Z,99968.22
2023-05-10T01:59:26.867Z,99974.25
2023-05-10T02:02:08.033Z,99969.09
2023-05-10T02:04:51.765Z,99975.75
2023-05-10T02:07:40.046Z,99972.25
2023-05-10T02:10:20.698Z,99972.63
2023-05-10T02:13:05.287Z,99978.78
2023-05-10T02:15:39.804Z,99972.19
2023-05-10T02:18:19.623Z,99961.53
2023-05-10T02:21:01.807Z,99970.16
2023-05-10T02:23:40.673Z,99972.69
2023-05-10T02:26:25.604Z,99967.13
2023-05-10T02:29:04.977Z,99978.97
2023-05-10T02:31:39.868Z,99971.78
2023-05-10T02:34:22.996Z,99975.28
2023-05-10T02:36:57.241Z,99974.41
2023-05-10T02:39:42.730Z,99977.78
2023-05-10T02:42:38.692Z,99978.25
2023-05-10T02:45:29.788Z,99983.84
2023-05-10T02:48:06.048Z,99981.19
2023-05-10T02:50:55.142Z,99971.78
2023-05-10T02:53:45.284Z,99984.47
2023-05-10T02:56:40.723Z,99979.03
2023-05-10T02:59:22.198Z,99980.06
2023-05-10T03:02:02.790Z,99980.69
2023-05-10T03:04:46.292Z,99982.78
2023-05-10T03:07:27.003Z,99990.59
2023-05-10T03:10:17.433Z,99986.19
2023-05-10T03:13:20.942Z,99984.81
2023-05-10T03:16:36.856Z,99986.47
2023-05-10T03:19:24.695Z,99985.72
2023-05-10T03:22:16.618Z,99976.75
2023-05-10T03:24:55.954Z,99982.78
2023-05-10T03:27:48.683Z,99979.00
2023-05-10T03:30:26.658Z,99977.78
2023-05-10T03:33:08.041Z,99981.56
2023-05-10T03:35:52.685Z,99985.22
2023-05-10T03:38:30.519Z,99983.56
2023-05-10T03:41:13.776Z,99972.31
2023-05-10T03:43:52.886Z,99968.97
2023-05-10T03:46:30.962Z,99973.63
2023-05-10T03:49:13.451Z,99970.88
2023-05-10T03:51:59.169Z,99978.09
2023-05-10T03:54:37.442Z,99975.38
2023-05-10T03:57:21.101Z,99982.53
2023-05-10T04:00:05.915Z,99976.34
2023-05-10T04:02:55.146Z,99976.47
2023-05-10T04:05:39.346Z,99966.06
2023-05-10T04:08:26.037Z,99968.50
2023-05-10T04:11:17.972Z,99972.75
2023-05-10T04:13:55.456Z,99977.13
2023-05-10T04:16:39.218Z,99969.25
2023-05-10T04:19:21.465Z,99968.44
2023-05-10T04:22:02.887Z,99972.19
2023-05-10T04:24:48.222Z,99973.63
2023-05-10T04:27:31.461Z,99973.88
2023-05-10T04:30:12.283Z,99979.63
2023-05-10T04:32:55.560Z,99966.81
2023-05-10T04:35:47.267Z,99971.59
2023-05-10T04:38:36.078Z,99981.03
2023-05-10T04:41:17.051Z,99977.28
2023-05-10T04:43:53.214Z,99973.50
2023-05-10T04:46:43.626Z,99971.38
2023-05-10T04:49:30.563Z,99975.44
2023-05-10T04:52:32.100Z,99973.81
2023-05-10T04:55:35.474Z,99970.50
2023-05-10T04:58:28.130Z,99967.63
2023-05-10T05:01:11.615Z,99973.09
2023-05-10T05:03:58.432Z,99972.09
2023-05-10T05:06:48.283Z,99974.16
2023-05-10T05:09:47.061Z,99977.19
2023-05-10T05:12:25.236Z,99973.72
2023-05-10T05:15:11.527Z,99973.81
2023-05-10T05:17:50.099Z,99980.22
2023-05-10T05:20:23.451Z,99981.75
2023-05-10T05:23:08.063Z,99979.31
2023-05-10T05:25:51.862Z,99979.63
2023-05-10T05:28:32.417Z,99986.53
2023-05-10T05:31:19.150Z,99986.13
2023-05-10T05:33:53.855Z,99990.31
2023-05-10T05:36:39.726Z,99988.09
2023-05-10T05:39:23.307Z,99994.16
2023-05-10T05:42:04.909Z,100003.84
2023-05-10T05:44:50.796Z,100003.56
2023-05-10T05:47:31.242Z,99999.59
2023-05-10T05:50:23.724Z,100001.38
2023-05-10T05:53:10.596Z,100009.34
2023-05-10T05:56:09.179Z,100010.63
2023-05-10T05:58:49.770Z,100012.34
2023-05-10T06:01:29.966Z,100013.22
2023-05-10T06:04:14.873Z,100009.66
2023-05-10T06:06:59.298Z,100008.53
2023-05-10T06:09:34.459Z,100012.88
2023-05-10T06:12:20.838Z,100009.34
2023-05-10T06:15:04.398Z,100013.50
2023-05-10T06:17:47.718Z,100010.72
2023-05-10T06:20:36.727Z,100006.84
2023-05-10T06:23:26.204Z,100008.53
2023-05-10T06:26:15.832Z,100011.25
2023-05-10T06:28:50.422Z,100009.53
2023-05-10T06:31:39.683Z,100015.03
2023-05-10T06:34:21.892Z,100014.72
2023-05-10T06:37:07.538Z,100015.88
2023-05-10T06:39:48.848Z,100018.72
2023-05-10T06:42:37.756Z,100024.03
2023-05-10T06:45:19.172Z,100031.34
2023-05-10T06:48:07.828Z,100029.16
2023-05-10T06:51:04.169Z,100029.81
2023-05-10T06:53:49.935Z,100020.81
2023-05-10T06:56:38.634Z,100015.78
2023-05-10T06:59:33.450Z,100021.44
2023-05-10T07:02:12.005Z,100021.44
2023-05-10T07:04:52.914Z,100024.13
2023-05-10T07:07:31.456Z,100026.59
2023-05-10T07:10:12.245Z,100029.66
2023-05-10T07:12:53.737Z,100030.00
2023-05-10T07:15:32.840Z,100028.63
2023-05-10T07:18:08.926Z,100030.03
2023-05-10T07:20:53.803Z,100025.13
2023-05-10T07:23:44.937Z,100034.22
2023-05-10T07:26:28.924Z,100033.41
2023-05-10T07:29:16.969Z,100020.91
2023-05-10T07:32:03.104Z,100022.88
2023-05-10T07:34:47.906Z,100027.78
2023-05-10T07:37:37.832Z,100029.72
2023-05-10T07:40:24.801Z,100017.25
2023-05-10T07:43:09.919Z,100017.78
2023-05-10T07:45:50.113Z,100021.72
2023-05-10T07:48:30.871Z,100022.44
2023-05-10T07:51:17.595Z,100016.00
2023-05-10T07:54:09.714Z,100010.56
2023-05-10T07:56:58.966Z,100005.63
2023-05-10T07:59:48.928Z,100019.59
2023-05-10T08:02:32.185Z,100018.25
2023-05-10T08:05:23.658Z,100015.19
2023-05-10T08:08:04.512Z,100019.31
2023-05-10T08:10:47.716Z,100023.09
2023-05-10T08:13:36.044Z,100018.63
2023-05-10T08:16:20.788Z,100020.75
2023-05-10T08:19:08.074Z,100019.72
2023-05-10T08:21:51.883Z,100021.22
2023-05-10T08:24:40.563Z,100020.25
2023-05-10T08:27:24.843Z,100018.84
2023-05-10T08:30:05.862Z,100015.25
2023-05-10T08:32:52.554Z,100021.41
2023-05-10T08:35:42.420Z,100020.06
2023-05-10T08:38:20.724Z,100022.97
2023-05-10T08:41:00.685Z,100023.09
2023-05-10T08:43:47.208Z,100009.03
2023-05-10T08:46:39.786Z,100006.00
2023-05-10T08:49:21.957Z,100014.56
2023-05-10T08:52:10.198Z,100011.78
2023-05-10T08:54:48.471Z,100009.72
2023-05-10T08:57:33.319Z,100009.38
2023-05-10T09:00:25.880Z,100000.94
2023-05-10T09:03:14.181Z,100006.31
2023-05-10T09:06:06.907Z,100002.25
2023-05-10T09:09:00.920Z,100005.25
2023-05-10T09:11:42.206Z,100005.69
2023-05-10T09:14:43.735Z,100009.72
2023-05-10T09:17:37.702Z,100006.78
2023-05-10T09:20:15.883Z,100005.56
2023-05-10T09:23:13.209Z,100010.22
2023-05-10T09:26:20.310Z,100012.19
2023-05-10T09:29:29.495Z,100019.13
2023-05-10T09:32:13.890Z,100015.78
2023-05-10T09:35:10.266Z,100011.09
2023-05-10T09:38:01.915Z,100013.13
2023-05-10T09:40:40.885Z,100006.19
2023-05-10T09:43:38.382Z,100007.22
2023-05-10T09:46:27.836Z,100015.53
2023-05-10T09:49:09.455Z,100005.56
2023-05-10T09:52:11.673Z,100000.53
2023-05-10T09:55:09.856Z,99993.22
2023-05-10T09:58:18.353Z,99993.50
2023-05-10T10:00:57.955Z,100000.00
2023-05-10T10:03:42.627Z,100000.94
2023-05-10T10:06:32.784Z,99995.88
2023-05-10T10:09:22.222Z,99984.16
2023-05-10T10:12:10.112Z,99981.38
2023-05-10T10:15:03.118Z,99984.69
2023-05-10T10:17:45.382Z,99977.63
2023-05-10T10:20:24.443Z,99980.34
2023-05-10T10:23:02.742Z,99988.59
2023-05-10T10:25:45.514Z,99987.34
2023-05-10T10:28:57.888Z,99982.94
2023-05-10T10:31:53.501Z,99966.31
2023-05-10T10:34:35.140Z,99966.59
2023-05-10T10:37:16.217Z,99957.91
2023-05-10T10:39:55.287Z,99962.28
2023-05-10T10:42:40.717Z,99962.78
2023-05-10T10:45:24.747Z,99962.19
2023-05-10T10:48:35.319Z,99952.16
2023-05-10T10:51:15.848Z,99960.59
2023-05-10T10:53:59.398Z,99953.28
2023-05-10T10:56:42.850Z,99955.50
2023-05-10T10:59:37.677Z,99954.41
2023-05-10T11:02:35.904Z,99952.78
2023-05-10T11:05:25.932Z,99942.75
2023-05-10T11:08:18.913Z,99942.38
2023-05-10T11:11:04.617Z,99939.75
2023-05-10T11:13:54.844Z,99934.28
2023-05-10T11:16:41.599Z,99932.13
2023-05-10T11:19:33.412Z,99929.88
2023-05-10T11:22:19.064Z,99927.47
2023-05-10T11:25:09.464Z,99918.41
2023-05-10T11:27:52.043Z,99917.03
2023-05-10T11:30:25.015Z,99924.97
2023-05-10T11:33:03.186Z,99914.81
2023-05-10T11:35:46.916Z,99920.63
2023-05-10T11:38:32.318Z,99917.88
2023-05-10T11:41:14.167Z,99903.38
2023-05-10T11:43:53.844Z,99904.34
2023-05-10T11:46:38.439Z,99912.09
2023-05-10T11:49:19.501Z,99904.53
2023-05-10T11:51:57.831Z,99902.97
2023-05-10T11:54:55.916Z,99901.81
2023-05-10T11:57:32.881Z,99902.22
2023-05-10T12:00:20.130Z,99900.03
2023-05-10T12:03:01.344Z,99901.19
2023-05-10T12:05:49.247Z,99904.25
2023-05-10T12:08:30.457Z,99904.31
2023-05-10T12:11:25.739Z,99899.16
2023-05-10T12:14:04.885Z,99897.47
2023-05-10T12:16:45.603Z,99900.19
2023-05-10T12:19:25.875Z,99907.25
2023-05-10T12:22:08.125Z,99885.19
2023-05-10T12:24:48.843Z,99892.84
2023-05-10T12:27:43.516Z,99890.59
2023-05-10T12:30:23.908Z,99890.25
2023-05-10T12:33:10.505Z,99882.09
2023-05-10T12:35:57.656Z,99889.53
2023-05-10T12:38:34.318Z,99893.44
2023-05-10T12:41:10.612Z,99894.81
2023-05-10T12:43:51.301Z,99894.00
2023-05-10T12:46:34.620Z,99880.47
2023-05-10T12:49:20.045Z,99878.75
2023-05-10T12:51:55.591Z,99864.44
2023-05-10T12:54:34.013Z,99869.88
2023-05-10T12:57:12.258Z,99870.91
2023-05-10T12:59:50.967Z,99861.84
2023-05-10T13:02:36.538Z,99864.06
2023-05-10T13:05:17.270Z,99854.41
2023-05-10T13:07:51.794Z,99844.75
2023-05-10T13:10:48.294Z,99843.69
2023-05-10T13:13:19.383Z,99849.22
2023-05-10T13:16:12.266Z,99845.25
2023-05-10T13:19:00.441Z,99839.00
2023-05-10T13:21:58.056Z,99837.41
2023-05-10T13:24:50.980Z,99837.28
2023-05-10T13:27:26.872Z,99835.81
2023-05-10T13:30:08.718Z,99827.00
2023-05-10T13:32:48.196Z,99823.81
2023-05-10T13:35:29.484Z,99820.03
2023-05-10T13:38:15.658Z,99806.97
2023-05-10T13:40:49.249Z,99809.63
2023-05-10T13:43:32.772Z,99810.00
2023-05-10T13:46:19.886Z,99806.06
2023-05-10T13:49:02.270Z,99805.13
2023-05-10T13:52:01.417Z,99792.75
2023-05-10T13:54:39.069Z,99802.38
2023-05-10T13:57:15.014Z,99802.66
2023-05-10T13:59:58.856Z,99794.53
2023-05-10T14:02:45.919Z,99795.53
2023-05-10T14:05:33.993Z,99794.44
2023-05-10T14:08:15.820Z,99794.97
2023-05-10T14:10:53.309Z,99791.38
2023-05-10T14:13:30.849Z,99799.34
2023-05-10T14:16:14.282Z,99798.19
2023-05-10T14:19:09.778Z,99797.22
2023-05-10T14:21:57.756Z,99792.03
2023-05-10T14:24:46.455Z,99792.13
2023-05-10T14:27:31.967Z,99781.81
2023-05-10T14:30:16.154Z,99779.53
2023-05-10T14:33:04.273Z,99789.09
2023-05-10T14:35:56.351Z,99782.25
2023-05-10T14:38:42.901Z,99788.28
2023-05-10T14:41:28.699Z,99775.72
2023-05-10T14:44:31.956Z,99780.25
2023-05-10T14:47:16.868Z,99780.47
2023-05-10T14:49:53.583Z,99777.88
2023-05-10T14:52:43.543Z,99781.38
2023-05-10T14:55:33.897Z,99779.56
2023-05-10T14:58:17.803Z,99780.06
2023-05-10T15:01:12.188Z,99783.16
2023-05-10T15:03:47.788Z,99789.53
2023-05-10T15:06:38.067Z,99786.72
2023-05-10T15:09:13.614Z,99787.22
2023-05-10T15:12:09.199Z,99783.28
2023-05-10T15:14:46.977Z,99779.41
2023-05-10T15:17:33.445Z,99787.56
2023-05-10T15:20:18.532Z,99776.97
2023-05-10T15:22:53.275Z,99783.88
2023-05-10T15:25:29.986Z,99788.47
2023-05-10T15:28:19.462Z,99785.78
2023-05-10T15:31:05.679Z,99784.09
2023-05-10T15:33:51.612Z,99784.59
2023-05-10T15:36:38.895Z,99777.88
2023-05-10T15:39:20.074Z,99773.31
2023-05-10T15:42:06.581Z,99772.94
2023-05-10T15:44:51.299Z,99768.31
2023-05-10T15:47:43.273Z,99770.09
2023-05-10T15:50:25.216Z,99763.31
2023-05-10T15:53:22.170Z,99774.16
2023-05-10T15:56:10.671Z,99767.31
2023-05-10T15:58:54.750Z,99762.56
2023-05-10T16:01:48.212Z,99762.13
2023-05-10T16:04:49.432Z,99757.41
2023-05-10T16:07:54.333Z,99757.66
2023-05-10T16:10:38.875Z,99756.75
2023-05-10T16:13:20.882Z,99761.63
2023-05-10T16:16:13.484Z,99765.81
2023-05-10T16:22:17.896Z,99764.97
2023-05-10T16:24:57.998Z,99765.16
2023-05-10T16:27:43.501Z,99767.69
2023-05-10T16:30:30.227Z,99767.44
2023-05-10T16:33:28.051Z,99769.19
2023-05-10T16:36:29.183Z,99775.91
2023-05-10T16:39:09.891Z,99771.44
2023-05-10T16:41:54.220Z,99766.75
2023-05-10T16:44:40.847Z,99774.72
2023-05-10T16:47:26.915Z,99772.34
2023-05-10T16:50:04.226Z,99772.69
2023-05-10T16:53:06.547Z,99772.69
2023-05-10T16:55:49.547Z,99784.84
2023-05-10T16:58:36.865Z,99779.34
2023-05-10T17:01:26.512Z,99791.16
2023-05-10T17:04:09.342Z,99785.72
2023-05-10T17:06:59.089Z,99789.56
2023-05-10T17:09:40.324Z,99786.28
2023-05-10T17:12:25.951Z,99794.47
2023-05-10T17:15:01.355Z,99794.53
2023-05-10T17:17:53.343Z,99796.25
2023-05-10T17:21:03.019Z,99799.53
2023-05-10T17:23:43.846Z,99800.91
2023-05-10T17:26:27.606Z,99800.59
2023-05-10T17:29:11.230Z,99800.56
2023-05-10T17:32:07.598Z,99807.41
2023-05-10T17:34:49.245Z,99799.94
2023-05-10T17:37:39.547Z,99805.34
2023-05-10T17:40:14.891Z,99818.34
2023-05-10T17:42:53.200Z,99798.22
2023-05-10T17:45:54.229Z,99803.66
2023-05-10T17:48:35.574Z,99804.69
2023-05-10T17:51:25.092Z,99806.25
2023-05-10T17:54:08.888Z,99807.06
2023-05-10T17:56:53.663Z,99816.56
2023-05-10T17:59:35.845Z,99812.22
2023-05-10T18:02:19.649Z,99820.13
2023-05-10T18:05:11.714Z,99819.09
2023-05-10T18:07:47.871Z,99820.25
2023-05-10T18:10:30.204Z,99824.34
2023-05-10T18:13:08.806Z,99816.94
2023-05-10T18:15:52.427Z,99820.38
2023-05-10T18:18:49.191Z,99820.81
2023-05-10T18:21:46.226Z,99823.44
2023-05-10T18:24:38.218Z,99825.78
2023-05-10T18:27:32.227Z,99821.97
2023-05-10T18:30:18.604Z,99830.75
2023-05-10T18:32:54.216Z,99829.47
2023-05-10T18:35:29.158Z,99841.34
2023-05-10T18:38:08.740Z,99829.38
2023-05-10T18:40:53.867Z,99837.34
2023-05-10T18:43:37.207Z,99838.22
2023-05-10T18:46:16.442Z,99833.56
2023-05-10T18:49:11.165Z,99841.19
2023-05-10T18:51:49.221Z,99842.03
2023-05-10T18:54:36.084Z,99842.78
2023-05-10T18:57:23.042Z,99844.13
2023-05-10T19:00:39.456Z,99842.22
2023-05-10T19:03:42.609Z,99851.88
2023-05-10T19:06:28.576Z,99847.16
2023-05-10T19:09:20.273Z,99848.25
2023-05-10T19:12:08.259Z,99847.59
2023-05-10T19:14:50.352Z,99849.25
2023-05-10T19:17:36.862Z,99853.09
2023-05-10T19:20:30.824Z,99851.66
2023-05-10T19:23:26.962Z,99862.31
2023-05-10T19:26:16.096Z,99852.66
2023-05-10T19:28:52.643Z,99857.44
2023-05-10T19:31:36.542Z,99855.44
2023-05-10T19:34:32.091Z,99854.69
2023-05-10T19:37:18.134Z,99847.78
2023-05-10T19:40:23.215Z,99858.25
2023-05-10T19:43:04.991Z,99854.59
2023-05-10T19:45:47.453Z,99858.00
2023-05-10T19:48:40.602Z,99849.59
2023-05-10T19:51:14.047Z,99856.03
2023-05-10T19:53:57.737Z,99862.75
2023-05-10T19:56:33.812Z,99855.84
2023-05-10T19:59:18.244Z,99847.81
2023-05-10T20:01:53.176Z,99852.78
2023-05-10T20:04:36.207Z,99844.66
2023-05-10T20:07:22.316Z,99849.19
2023-05-10T20:10:10.789Z,99850.97
2023-05-10T20:12:52.492Z,99843.13
2023-05-10T20:15:42.815Z,99848.59
2023-05-10T20:18:41.336Z,99852.59
2023-05-10T20:21:24.090Z,99852.13
2023-05-10T20:24:09.163Z,99853.75
2023-05-10T20:26:59.857Z,99854.59
2023-05-10T20:29:43.790Z,99851.66
2023-05-10T20:32:30.617Z,99856.50
2023-05-10T20:35:16.807Z,99851.00
2023-05-10T20:38:02.230Z,99858.97
2023-05-10T20:40:46.449Z,99847.00
2023-05-10T20:43:36.601Z,99848.81
2023-05-10T20:46:13.118Z,99848.63
2023-05-10T20:49:05.010Z,99853.78
2023-05-10T20:51:49.426Z,99853.22
2023-05-10T20:54:35.598Z,99852.84
2023-05-10T20:57:19.314Z,99857.91
2023-05-10T20:59:57.800Z,99858.59
2023-05-10T21:02:43.796Z,99847.53
2023-05-10T21:05:27.424Z,99848.00
2023-05-10T21:08:08.592Z,99849.53
2023-05-10T21:10:45.763Z,99847.22
2023-05-10T21:13:26.092Z,99845.28
2023-05-10T21:16:09.350Z,99842.06
2023-05-10T21:18:53.256Z,99838.78
2023-05-10T21:21:36.323Z,99845.03
2023-05-10T21:24:19.266Z,99836.13
2023-05-10T21:27:01.272Z,99848.34
2023-05-10T21:29:47.110Z,99846.16
2023-05-10T21:32:33.296Z,99845.53
2023-05-10T21:36:05.620Z,99857.50
2023-05-10T21:38:46.638Z,99843.06
2023-05-10T21:41:29.874Z,99847.69
2023-05-10T21:44:16.752Z,99849.66
2023-05-10T21:47:07.678Z,99838.25
2023-05-10T21:49:50.635Z,99843.88
2023-05-10T21:52:37.637Z,99841.91
2023-05-10T21:55:23.986Z,99850.16
2023-05-10T21:58:05.029Z,99852.13
2023-05-10T22:00:44.019Z,99846.88
2023-05-10T22:03:22.916Z,99849.16
2023-05-10T22:09:09.197Z,99851.22
2023-05-10T22:11:52.431Z,99849.25
2023-05-10T22:14:30.534Z,99851.22
2023-05-10T22:17:28.172Z,99857.97
2023-05-10T22:20:12.094Z,99852.53
2023-05-10T22:22:57.781Z,99860.47
2023-05-10T22:25:40.524Z,99857.59
2023-05-10T22:28:23.766Z,99855.41
2023-05-10T22:31:15.353Z,99855.34
2023-05-10T22:34:02.079Z,99856.41
2023-05-10T22:36:50.552Z,99864.38
2023-05-10T22:39:33.844Z,99860.63
2023-05-10T22:42:11.723Z,99864.06
2023-05-10T22:44:57.281Z,99854.31
2023-05-10T22:47:43.428Z,99862.41
2023-05-10T22:50:26.914Z,99855.22
2023-05-10T22:53:07.402Z,99865.72
2023-05-10T22:55:50.122Z,99863.47
2023-05-10T22:58:20.300Z,99864.44
2023-05-10T23:00:58.246Z,99867.94
2023-05-10T23:03:50.576Z,99871.47
2023-05-10T23:06:28.242Z,99869.75
2023-05-10T23:09:11.776Z,99868.09
2023-05-10T23:11:55.397Z,99873.69
2023-05-10T23:14:36.043Z,99868.34
2023-05-10T23:17:14.534Z,99864.13
2023-05-10T23:19:54.422Z,99865.91
2023-05-10T23:22:35.229Z,99872.44
2023-05-10T23:25:19.197Z,99858.97
2023-05-10T23:27:59.453Z,99853.16
2023-05-10T23:30:43.225Z,99853.03
2023-05-10T23:33:27.323Z,99847.94
2023-05-10T23:36:22.000Z,99850.41
2023-05-10T23:39:28.526Z,99849.59
2023-05-10T23:42:11.731Z,99849.81
2023-05-10T23:44:50.613Z,99852.41
2023-05-10T23:47:52.600Z,99867.34
2023-05-10T23:50:42.546Z,99859.19
2023-05-10T23:53:23.950Z,99869.97
2023-05-10T23:56:09.217Z,99869.34
2023-05-10T23:58:51.021Z,99867.06
